sensor_id;sensor_type;location;lat;lon;timestamp;temperature;humidity
13596;DHT22;6868;52.544;13.416;2023-02-28T00:00:46;1.90;99.90
13596;DHT22;6868;52.544;13.416;2023-02-28T00:03:12;1.90;99.90
13596;DHT22;6868;52.544;13.416;2023-02-28T00:05:39;1.80;99.90
13596;DHT22;6868;52.544;13.416;2023-02-28T00:10:43;1.90;99.90
13596;DHT22;6868;52.544;13.416;2023-02-28T00:13:10;1.90;99.90
13596;DHT22;6868;52.544;13.416;2023-02-28T00:15:38;1.90;99.90
13596;DHT22;6868;52.544;13.416;2023-02-28T00:18:05;1.80;99.90
13596;DHT22;6868;52.544;13.416;2023-02-28T00:20:32;1.90;99.90
13596;DHT22;6868;52.544;13.416;2023-02-28T00:22:58;1.90;99.90
13596;DHT22;6868;52.544;13.416;2023-02-28T00:25:25;1.90;99.90
13596;DHT22;6868;52.544;13.416;2023-02-28T00:27:52;1.90;99.90
13596;DHT22;6868;52.544;13.416;2023-02-28T00:30:19;1.80;99.90
13596;DHT22;6868;52.544;13.416;2023-02-28T00:32:48;1.80;99.90
13596;DHT22;6868;52.544;13.416;2023-02-28T00:35:15;1.80;99.90
13596;DHT22;6868;52.544;13.416;2023-02-28T00:37:42;1.90;99.90
13596;DHT22;6868;52.544;13.416;2023-02-28T00:40:09;1.80;99.90
13596;DHT22;6868;52.544;13.416;2023-02-28T00:42:37;1.90;99.90
13596;DHT22;6868;52.544;13.416;2023-02-28T00:45:04;1.80;99.90
13596;DHT22;6868;52.544;13.416;2023-02-28T00:47:31;1.80;99.90
13596;DHT22;6868;52.544;13.416;2023-02-28T00:50:00;1.90;99.90
13596;DHT22;6868;52.544;13.416;2023-02-28T00:52:27;2.00;99.90
13596;DHT22;6868;52.544;13.416;2023-02-28T00:54:53;1.90;99.90
13596;DHT22;6868;52.544;13.416;2023-02-28T00:57:20;2.40;99.90
13596;DHT22;6868;52.544;13.416;2023-02-28T00:59:47;1.90;99.90
13596;DHT22;6868;52.544;13.416;2023-02-28T01:02:14;2.30;99.90
13596;DHT22;6868;52.544;13.416;2023-02-28T01:04:41;2.60;99.90
13596;DHT22;6868;52.544;13.416;2023-02-28T01:09:36;1.90;99.90
13596;DHT22;6868;52.544;13.416;2023-02-28T01:12:03;1.90;99.90
13596;DHT22;6868;52.544;13.416;2023-02-28T01:14:30;1.80;99.90
13596;DHT22;6868;52.544;13.416;2023-02-28T01:16:57;1.80;99.90
13596;DHT22;6868;52.544;13.416;2023-02-28T01:19:24;1.80;99.90
13596;DHT22;6868;52.544;13.416;2023-02-28T01:21:53;1.80;99.90
13596;DHT22;6868;52.544;13.416;2023-02-28T01:24:20;1.80;99.90
13596;DHT22;6868;52.544;13.416;2023-02-28T01:29:16;1.70;99.90
13596;DHT22;6868;52.544;13.416;2023-02-28T01:31:42;1.70;99.90
13596;DHT22;6868;52.544;13.416;2023-02-28T01:34:12;1.70;99.90
13596;DHT22;6868;52.544;13.416;2023-02-28T01:36:38;1.60;99.90
13596;DHT22;6868;52.544;13.416;2023-02-28T01:39:05;1.70;99.90
13596;DHT22;6868;52.544;13.416;2023-02-28T01:41:34;1.60;99.90
13596;DHT22;6868;52.544;13.416;2023-02-28T01:44:02;1.60;99.90
13596;DHT22;6868;52.544;13.416;2023-02-28T01:46:32;1.60;99.90
13596;DHT22;6868;52.544;13.416;2023-02-28T01:49:01;1.70;99.90
13596;DHT22;6868;52.544;13.416;2023-02-28T01:51:29;1.60;99.90
13596;DHT22;6868;52.544;13.416;2023-02-28T01:54:01;1.60;99.90
13596;DHT22;6868;52.544;13.416;2023-02-28T01:56:30;1.60;99.90
13596;DHT22;6868;52.544;13.416;2023-02-28T01:58:57;1.60;99.90
13596;DHT22;6868;52.544;13.416;2023-02-28T02:01:25;1.60;99.90
13596;DHT22;6868;52.544;13.416;2023-02-28T02:03:55;1.60;99.90
13596;DHT22;6868;52.544;13.416;2023-02-28T02:06:22;1.50;99.90
13596;DHT22;6868;52.544;13.416;2023-02-28T02:08:51;1.40;99.90
13596;DHT22;6868;52.544;13.416;2023-02-28T02:11:19;1.40;99.90
13596;DHT22;6868;52.544;13.416;2023-02-28T02:13:51;1.40;99.90
13596;DHT22;6868;52.544;13.416;2023-02-28T02:16:27;1.30;99.90
13596;DHT22;6868;52.544;13.416;2023-02-28T02:18:59;1.20;99.90
13596;DHT22;6868;52.544;13.416;2023-02-28T02:24:24;1.20;99.90
13596;DHT22;6868;52.544;13.416;2023-02-28T02:35:13;1.10;99.90
13596;DHT22;6868;52.544;13.416;2023-02-28T02:37:42;1.00;99.90
13596;DHT22;6868;52.544;13.416;2023-02-28T02:40:11;1.80;99.90
13596;DHT22;6868;52.544;13.416;2023-02-28T02:42:41;1.00;99.90
13596;DHT22;6868;52.544;13.416;2023-02-28T02:45:15;1.00;99.90
13596;DHT22;6868;52.544;13.416;2023-02-28T02:47:43;0.90;99.90
13596;DHT22;6868;52.544;13.416;2023-02-28T02:50:12;0.90;99.90
13596;DHT22;6868;52.544;13.416;2023-02-28T02:52:42;-0.10;99.90
13596;DHT22;6868;52.544;13.416;2023-02-28T02:55:11;0.80;99.90
13596;DHT22;6868;52.544;13.416;2023-02-28T02:57:40;0.80;99.90
13596;DHT22;6868;52.544;13.416;2023-02-28T03:00:10;1.10;99.90
13596;DHT22;6868;52.544;13.416;2023-02-28T03:02:37;1.10;99.90
13596;DHT22;6868;52.544;13.416;2023-02-28T03:05:06;2.20;99.90
13596;DHT22;6868;52.544;13.416;2023-02-28T03:07:34;0.70;99.90
13596;DHT22;6868;52.544;13.416;2023-02-28T03:10:03;0.80;99.90
13596;DHT22;6868;52.544;13.416;2023-02-28T03:12:51;0.60;99.90
13596;DHT22;6868;52.544;13.416;2023-02-28T03:15:20;0.70;99.90
13596;DHT22;6868;52.544;13.416;2023-02-28T03:17:55;0.70;99.90
13596;DHT22;6868;52.544;13.416;2023-02-28T03:20:29;0.70;99.90
13596;DHT22;6868;52.544;13.416;2023-02-28T03:22:59;1.10;99.90
13596;DHT22;6868;52.544;13.416;2023-02-28T03:25:31;0.60;99.90
13596;DHT22;6868;52.544;13.416;2023-02-28T03:28:04;0.70;99.90
13596;DHT22;6868;52.544;13.416;2023-02-28T03:30:40;0.70;99.90
13596;DHT22;6868;52.544;13.416;2023-02-28T03:33:09;0.80;99.90
13596;DHT22;6868;52.544;13.416;2023-02-28T03:35:39;0.60;99.90
13596;DHT22;6868;52.544;13.416;2023-02-28T03:38:07;1.90;99.90
13596;DHT22;6868;52.544;13.416;2023-02-28T03:40:41;1.30;99.90
13596;DHT22;6868;52.544;13.416;2023-02-28T03:43:12;0.80;99.90
13596;DHT22;6868;52.544;13.416;2023-02-28T03:45:39;0.60;99.90
13596;DHT22;6868;52.544;13.416;2023-02-28T03:48:09;0.90;99.90
13596;DHT22;6868;52.544;13.416;2023-02-28T03:50:39;0.10;99.90
13596;DHT22;6868;52.544;13.416;2023-02-28T03:53:08;0.70;99.90
13596;DHT22;6868;52.544;13.416;2023-02-28T03:55:38;0.30;99.90
13596;DHT22;6868;52.544;13.416;2023-02-28T03:58:10;0.70;99.90
13596;DHT22;6868;52.544;13.416;2023-02-28T04:00:38;0.60;99.90
13596;DHT22;6868;52.544;13.416;2023-02-28T04:03:06;0.40;99.90
13596;DHT22;6868;52.544;13.416;2023-02-28T04:05:33;0.60;99.90
13596;DHT22;6868;52.544;13.416;2023-02-28T04:08:10;1.30;99.90
13596;DHT22;6868;52.544;13.416;2023-02-28T04:10:37;-0.30;99.90
13596;DHT22;6868;52.544;13.416;2023-02-28T04:13:04;-0.50;99.90
13596;DHT22;6868;52.544;13.416;2023-02-28T04:15:32;0.40;99.90
13596;DHT22;6868;52.544;13.416;2023-02-28T04:17:59;0.40;99.90
13596;DHT22;6868;52.544;13.416;2023-02-28T04:20:28;0.20;99.90
13596;DHT22;6868;52.544;13.416;2023-02-28T04:22:55;0.70;99.90
13596;DHT22;6868;52.544;13.416;2023-02-28T04:25:23;0.20;99.90
13596;DHT22;6868;52.544;13.416;2023-02-28T04:27:50;0.40;99.90
13596;DHT22;6868;52.544;13.416;2023-02-28T04:30:17;0.30;99.90
13596;DHT22;6868;52.544;13.416;2023-02-28T04:32:45;0.70;99.90
13596;DHT22;6868;52.544;13.416;2023-02-28T04:35:12;0.10;99.90
13596;DHT22;6868;52.544;13.416;2023-02-28T04:37:40;0.20;99.90
13596;DHT22;6868;52.544;13.416;2023-02-28T04:40:07;0.80;99.90
13596;DHT22;6868;52.544;13.416;2023-02-28T04:42:34;0.10;99.90
13596;DHT22;6868;52.544;13.416;2023-02-28T04:45:02;0.20;99.90
13596;DHT22;6868;52.544;13.416;2023-02-28T04:47:28;0.10;99.90
13596;DHT22;6868;52.544;13.416;2023-02-28T04:49:57;0.10;99.90
13596;DHT22;6868;52.544;13.416;2023-02-28T04:52:23;0.20;99.90
13596;DHT22;6868;52.544;13.416;2023-02-28T04:54:50;0.10;99.90
13596;DHT22;6868;52.544;13.416;2023-02-28T04:57:17;0.00;99.90
13596;DHT22;6868;52.544;13.416;2023-02-28T04:59:44;0.30;99.90
13596;DHT22;6868;52.544;13.416;2023-02-28T05:02:12;0.10;99.90
13596;DHT22;6868;52.544;13.416;2023-02-28T05:04:39;0.10;99.90
13596;DHT22;6868;52.544;13.416;2023-02-28T05:07:07;-0.10;99.90
13596;DHT22;6868;52.544;13.416;2023-02-28T05:09:35;0.10;99.90
13596;DHT22;6868;52.544;13.416;2023-02-28T05:12:02;0.00;99.90
13596;DHT22;6868;52.544;13.416;2023-02-28T05:14:29;-0.10;99.90
13596;DHT22;6868;52.544;13.416;2023-02-28T05:16:56;-0.30;99.90
13596;DHT22;6868;52.544;13.416;2023-02-28T05:19:22;-0.10;99.90
13596;DHT22;6868;52.544;13.416;2023-02-28T05:21:50;-0.10;99.90
13596;DHT22;6868;52.544;13.416;2023-02-28T05:24:19;0.10;99.90
13596;DHT22;6868;52.544;13.416;2023-02-28T05:26:48;-0.30;99.90
13596;DHT22;6868;52.544;13.416;2023-02-28T05:29:15;-0.20;99.90
13596;DHT22;6868;52.544;13.416;2023-02-28T05:31:42;-0.10;99.90
13596;DHT22;6868;52.544;13.416;2023-02-28T05:34:11;0.00;99.90
13596;DHT22;6868;52.544;13.416;2023-02-28T05:36:40;0.00;99.90
13596;DHT22;6868;52.544;13.416;2023-02-28T05:39:07;0.00;99.90
13596;DHT22;6868;52.544;13.416;2023-02-28T05:41:40;0.00;99.90
13596;DHT22;6868;52.544;13.416;2023-02-28T05:44:10;0.00;99.90
13596;DHT22;6868;52.544;13.416;2023-02-28T05:46:37;-0.10;99.90
13596;DHT22;6868;52.544;13.416;2023-02-28T05:49:04;-0.10;99.90
13596;DHT22;6868;52.544;13.416;2023-02-28T05:51:31;-0.10;99.90
13596;DHT22;6868;52.544;13.416;2023-02-28T05:54:00;0.00;99.90
13596;DHT22;6868;52.544;13.416;2023-02-28T05:56:27;-0.10;99.90
13596;DHT22;6868;52.544;13.416;2023-02-28T05:58:58;-0.10;99.90
13596;DHT22;6868;52.544;13.416;2023-02-28T06:01:30;-0.30;99.90
13596;DHT22;6868;52.544;13.416;2023-02-28T06:03:57;0.00;99.90
13596;DHT22;6868;52.544;13.416;2023-02-28T06:06:25;0.10;99.90
13596;DHT22;6868;52.544;13.416;2023-02-28T06:08:55;0.00;99.90
13596;DHT22;6868;52.544;13.416;2023-02-28T06:11:22;0.10;99.90
13596;DHT22;6868;52.544;13.416;2023-02-28T06:13:53;0.00;99.90
13596;DHT22;6868;52.544;13.416;2023-02-28T06:18:49;-0.10;99.90
13596;DHT22;6868;52.544;13.416;2023-02-28T06:21:18;-0.10;99.90
13596;DHT22;6868;52.544;13.416;2023-02-28T06:23:45;-0.10;99.90
13596;DHT22;6868;52.544;13.416;2023-02-28T06:26:11;0.20;99.90
13596;DHT22;6868;52.544;13.416;2023-02-28T06:28:38;0.20;99.90
13596;DHT22;6868;52.544;13.416;2023-02-28T06:31:08;0.30;99.90
13596;DHT22;6868;52.544;13.416;2023-02-28T06:33:36;0.40;99.90
13596;DHT22;6868;52.544;13.416;2023-02-28T06:36:06;0.60;99.90
13596;DHT22;6868;52.544;13.416;2023-02-28T06:38:33;0.90;99.90
13596;DHT22;6868;52.544;13.416;2023-02-28T06:41:00;1.00;99.90
13596;DHT22;6868;52.544;13.416;2023-02-28T06:43:28;1.20;99.90
13596;DHT22;6868;52.544;13.416;2023-02-28T06:45:57;1.40;99.90
13596;DHT22;6868;52.544;13.416;2023-02-28T06:48:24;1.60;99.90
13596;DHT22;6868;52.544;13.416;2023-02-28T06:50:52;1.80;99.90
13596;DHT22;6868;52.544;13.416;2023-02-28T06:53:20;1.80;99.90
13596;DHT22;6868;52.544;13.416;2023-02-28T06:55:47;1.90;99.90
13596;DHT22;6868;52.544;13.416;2023-02-28T06:58:14;2.10;99.90
13596;DHT22;6868;52.544;13.416;2023-02-28T07:00:41;2.10;99.90
13596;DHT22;6868;52.544;13.416;2023-02-28T07:03:09;2.30;99.90
13596;DHT22;6868;52.544;13.416;2023-02-28T07:05:36;2.60;99.90
13596;DHT22;6868;52.544;13.416;2023-02-28T07:08:03;2.60;99.90
13596;DHT22;6868;52.544;13.416;2023-02-28T22:24:42;1.10;99.90
13596;DHT22;6868;52.544;13.416;2023-02-28T22:27:08;1.10;99.90
13596;DHT22;6868;52.544;13.416;2023-02-28T22:29:35;1.10;99.90
13596;DHT22;6868;52.544;13.416;2023-02-28T22:32:02;1.10;99.90
13596;DHT22;6868;52.544;13.416;2023-02-28T22:36:56;1.10;99.90
13596;DHT22;6868;52.544;13.416;2023-02-28T22:39:23;1.00;99.90
13596;DHT22;6868;52.544;13.416;2023-02-28T22:41:54;1.00;99.90
13596;DHT22;6868;52.544;13.416;2023-02-28T22:44:21;1.00;99.90
13596;DHT22;6868;52.544;13.416;2023-02-28T22:46:51;1.00;99.90
13596;DHT22;6868;52.544;13.416;2023-02-28T22:49:18;0.90;99.90
13596;DHT22;6868;52.544;13.416;2023-02-28T22:51:44;0.90;99.90
13596;DHT22;6868;52.544;13.416;2023-02-28T22:54:11;0.90;99.90
13596;DHT22;6868;52.544;13.416;2023-02-28T22:56:38;0.90;99.90
13596;DHT22;6868;52.544;13.416;2023-02-28T22:59:07;0.90;99.90
13596;DHT22;6868;52.544;13.416;2023-02-28T23:01:33;0.90;99.90
13596;DHT22;6868;52.544;13.416;2023-02-28T23:04:00;0.90;99.90
13596;DHT22;6868;52.544;13.416;2023-02-28T23:06:29;0.90;99.90
13596;DHT22;6868;52.544;13.416;2023-02-28T23:08:59;1.00;99.90
13596;DHT22;6868;52.544;13.416;2023-02-28T23:11:27;0.90;99.90
13596;DHT22;6868;52.544;13.416;2023-02-28T23:13:54;0.90;99.90
13596;DHT22;6868;52.544;13.416;2023-02-28T23:16:26;0.90;99.90
13596;DHT22;6868;52.544;13.416;2023-02-28T23:18:54;0.90;99.90
13596;DHT22;6868;52.544;13.416;2023-02-28T23:21:22;0.90;99.90
13596;DHT22;6868;52.544;13.416;2023-02-28T23:23:48;0.90;99.90
13596;DHT22;6868;52.544;13.416;2023-02-28T23:26:15;0.90;99.90
13596;DHT22;6868;52.544;13.416;2023-02-28T23:28:42;0.90;99.90
13596;DHT22;6868;52.544;13.416;2023-02-28T23:31:10;0.90;99.90
13596;DHT22;6868;52.544;13.416;2023-02-28T23:36:09;0.80;99.90
13596;DHT22;6868;52.544;13.416;2023-02-28T23:38:39;0.80;99.90
13596;DHT22;6868;52.544;13.416;2023-02-28T23:41:06;1.00;99.90
13596;DHT22;6868;52.544;13.416;2023-02-28T23:43:33;0.80;99.90
13596;DHT22;6868;52.544;13.416;2023-02-28T23:46:01;0.80;99.90
13596;DHT22;6868;52.544;13.416;2023-02-28T23:48:28;0.90;99.90
13596;DHT22;6868;52.544;13.416;2023-02-28T23:50:59;0.70;99.90
13596;DHT22;6868;52.544;13.416;2023-02-28T23:53:30;0.70;99.90
13596;DHT22;6868;52.544;13.416;2023-02-28T23:55:58;0.50;99.90
13596;DHT22;6868;52.544;13.416;2023-02-28T23:58:25;0.60;99.90
